UUEELBBG

Guest
Details From UUEE - Moscou Sheremetyevo
To LBBG - Burgas
Flight Number -
Tags Generated
Created
Modified
Stats Distance 892 nm / 1,652 km
Max Altitude 0 ft / 0 m
Waypoints 5
Social Downloads 1
Likes 0
Share VATSIM

Download

Looking for another format? Having issues loading an existing format? Contact us
Advertisement - Login to hide

Notes

Generated

Route

UUEE KOKOR CK BGS LBBG

ID Type Via Altitude Latitude Longitude Leg Dist Tot Dist Heading (true) Name
O UUEE APT - 0 ft / 0 m 55.96979˚ 37.38673˚ - 0 nm - -
KOKOR FIX - 0 ft / 0 m 52.60333˚ 34.30000˚ 229 nm 229 nm 209° / 207° -
CK NDB - 0 ft / 0 m 49.45644˚ 31.95994˚ 208 nm 437 nm 206° / 204° CHERKASY NDB
BGS VOR - 0 ft / 0 m 42.57106˚ 27.51986˚ 452 nm 890 nm 206° / 203° BURGAS VOR-DME
O LBBG APT - 0 ft / 0 m 42.55983˚ 27.50160˚ 1 nm 891 nm 230° / 230° -

Altitude Profile

Advertisement - Login to hide

Weather


0- 5 10 15 20 25 30 35+ Temperature / ° C

Clouds and Precipitation
Forecast for 2017-12-16 06:00 UTC. Updated 2 hours ago

Ground ~20,000 ft ~40,000 ft Winds

UUEE

Details ICAO UUEE (SVO)
Name Moscou Sheremetyevo
Region Russia
Timezone Europe/Moscow (UTC+3.0)
Stats Elevation 622 ft / 190 m (AMSL)
Location 55.972642° 37.414586°
Runways 2
Magnetic Variation 11.166° E

METAR

UUEE 160500Z 13007MPS 5000 BR OVC003 02/02 Q1009 R06L/290145 R06R/290151 NOSIG

Decode

TAF

TAF UUEE 160158Z 1603/1703 13007MPS 2000 BR OVC003 TX04/1618Z TN02/1603Z TEMPO 1603/1606 0300 FG VV001 FM160800 16007G13MPS 6000 -RA OVC005 TEMPO 1609/1703 3100 -SHRA BR OVC003 SCT010CB

Decode

Departure Runways

ID Width Length Bearing (true) Bearing (mag) Surface Threshold Offset Overrun Length
07L 197 ft / 60 m 11,613 ft / 3,540 m 74.99° 63.82° Concrete 0 ft / 0 m 240 ft / 73 m
07R 197 ft / 60 m 12,127 ft / 3,696 m 75.03° 63.86° Concrete 0 ft / 0 m 235 ft / 72 m
25L 197 ft / 60 m 12,127 ft / 3,696 m 255.08° 243.91° Concrete 0 ft / 0 m 245 ft / 75 m
25R 197 ft / 60 m 11,613 ft / 3,540 m 255.04° 243.87° Concrete 0 ft / 0 m 245 ft / 75 m

LBBG

Details ICAO LBBG (BOJ)
Name Burgas
Region Bulgaria
Timezone Europe/Sofia (UTC+2.0)
Stats Elevation 135 ft / 41 m (AMSL)
Location 42.570130° 27.515240°
Runways 1
Magnetic Variation 5.503° E

METAR

LBBG 160500Z 23008KT 9999 FEW045 13/09 Q1007 NOSIG

Decode

TAF

TAF TAF LBBG 152300Z 1600/1624 24010KT CAVOK TEMPO 1604/1614 21018G28KT BECMG 1614/1616 SCT030 BKN045

Decode

Destination Runways

ID Width Length Bearing (true) Bearing (mag) Surface Threshold Offset Overrun Length
04 148 ft / 45 m 10,502 ft / 3,201 m 44.28° 38.78° Concrete 0 ft / 0 m 190 ft / 58 m
22 148 ft / 45 m 10,502 ft / 3,201 m 224.29° 218.79° Concrete 0 ft / 0 m 190 ft / 58 m

Approach Navaids

Runway Type Ident Frequency Range Bearing (true) Bearing (mag) Slope Elevation
22 Localiser IBG 110.30 MHz 18 nm / 33 km 224.26° 218.76° - 135 ft / 41 m (AMSL)
22 Glidescope IBG 110.30 MHz 10 nm / 19 km 224.28° 218.78° 3.00° 135 ft / 41 m (AMSL)

Popular Alternatives